Aviation Digital Data Service (ADDS)

Output produced by METARs form (0729 UTC 21 February 2017)
found at http://www.aviationweather.gov/adds/metars/
 
METAR text: KSBP 210723Z AUTO 15011KT 2SM RA BR FEW016 BKN022 OVC028 15/13 A3022 RMK AO2 P0009 T01500128
Conditions at: KSBP (SAN LUIS OBISPO , CA, US) observed 0723 UTC 21 February 2017
Temperature: 15.0°C (59°F)
Dewpoint: 12.8°C (55°F) [RH = 87%]
Pressure (altimeter): 30.22 inches Hg (1023.5 mb)
Winds: from the SSE (150 degrees) at 13 MPH (11 knots; 5.7 m/s)
Visibility: 2.00 miles (3.22 km)
Ceiling: 2200 feet AGL
Clouds: few clouds at 1600 feet AGL
broken clouds at 2200 feet AGL
overcast cloud deck at 2800 feet AGL
Weather: RA BR  (rain, mist)

METAR text: KSBP 210656Z AUTO 17011G16KT 4SM -RA SCT020 OVC028 16/13 A3021 RMK AO2 PK WND 16026/0557 SLP229 P0010 T01560128
Conditions at: KSBP (SAN LUIS OBISPO , CA, US) observed 0656 UTC 21 February 2017
Temperature: 15.6°C (60°F)
Dewpoint: 12.8°C (55°F) [RH = 83%]
Pressure (altimeter): 30.21 inches Hg (1023.1 mb)
[Sea-level pressure: 1022.9 mb]
Winds: from the S (170 degrees) at 13 MPH (11 knots; 5.7 m/s)
gusting to 18 MPH (16 knots; 8.3 m/s)
Visibility: 4 miles (6 km)
Ceiling: 2800 feet AGL
Clouds: scattered clouds at 2000 feet AGL
overcast cloud deck at 2800 feet AGL
Weather: -RA  (light rain)

METAR text: KSBP 210647Z AUTO 16010KT 3SM RA FEW016 SCT023 OVC033 16/13 A3021 RMK AO2 PK WND 16026/0557 P0009 T01560128
Conditions at: KSBP (SAN LUIS OBISPO , CA, US) observed 0647 UTC 21 February 2017
Temperature: 15.6°C (60°F)
Dewpoint: 12.8°C (55°F) [RH = 83%]
Pressure (altimeter): 30.21 inches Hg (1023.1 mb)
Winds: from the SSE (160 degrees) at 12 MPH (10 knots; 5.2 m/s)
Visibility: 3 miles (5 km)
Ceiling: 3300 feet AGL
Clouds: few clouds at 1600 feet AGL
scattered clouds at 2300 feet AGL
overcast cloud deck at 3300 feet AGL
Weather: RA  (rain)

METAR text: KSBP 210640Z AUTO 17009KT 2 1/2SM -RA FEW020 FEW025 OVC035 16/13 A3021 RMK AO2 PK WND 16026/0557 P0007 T01560128
Conditions at: KSBP (SAN LUIS OBISPO , CA, US) observed 0640 UTC 21 February 2017
Temperature: 15.6°C (60°F)
Dewpoint: 12.8°C (55°F) [RH = 83%]
Pressure (altimeter): 30.21 inches Hg (1023.1 mb)
Winds: from the S (170 degrees) at 10 MPH (9 knots; 4.7 m/s)
Visibility: 2.50 miles (4.02 km)
Ceiling: 3500 feet AGL
Clouds: few clouds at 2000 feet AGL
few clouds at 2500 feet AGL
overcast cloud deck at 3500 feet AGL
Weather: -RA  (light rain)

METAR text: KSBP 210556Z AUTO 17018G25KT 10SM -RA FEW037 OVC044 17/12 A3019 RMK AO2 PK WND 16027/0512 RAB50 SLP221 P0000 60000 T01670122 10172 20161 51008
Conditions at: KSBP (SAN LUIS OBISPO , CA, US) observed 0556 UTC 21 February 2017
Temperature: 16.7°C (62°F)
Dewpoint: 12.2°C (54°F) [RH = 75%]
Pressure (altimeter): 30.19 inches Hg (1022.4 mb)
[Sea-level pressure: 1022.1 mb]
Winds: from the S (170 degrees) at 21 MPH (18 knots; 9.4 m/s)
gusting to 29 MPH (25 knots; 13.0 m/s)
Visibility: 10 or more miles (16+ km)
Ceiling: 4400 feet AGL
Clouds: few clouds at 3700 feet AGL
overcast cloud deck at 4400 feet AGL
Weather: -RA  (light rain)

METAR text: KSBP 210456Z AUTO 16015G24KT 10SM FEW026 BKN050 OVC065 16/12 A3018 RMK AO2 SLP219 T01610122
Conditions at: KSBP (SAN LUIS OBISPO , CA, US) observed 0456 UTC 21 February 2017
Temperature: 16.1°C (61°F)
Dewpoint: 12.2°C (54°F) [RH = 78%]
Pressure (altimeter): 30.18 inches Hg (1022.1 mb)
[Sea-level pressure: 1021.9 mb]
Winds: from the SSE (160 degrees) at 17 MPH (15 knots; 7.8 m/s)
gusting to 28 MPH (24 knots; 12.5 m/s)
Visibility: 10 or more miles (16+ km)
Ceiling: 5000 feet AGL
Clouds: few clouds at 2600 feet AGL
broken clouds at 5000 feet AGL
overcast cloud deck at 6500 feet AGL
Weather: automated observation with no human augmentation;
there may or may not be significant weather present at this time

METAR text: KSBP 210356Z 17011G18KT 10SM FEW024 SCT034 BKN043 16/12 A3019 RMK AO2 SLP223 T01610122
Conditions at: KSBP (SAN LUIS OBISPO , CA, US) observed 0356 UTC 21 February 2017
Temperature: 16.1°C (61°F)
Dewpoint: 12.2°C (54°F) [RH = 78%]
Pressure (altimeter): 30.19 inches Hg (1022.4 mb)
[Sea-level pressure: 1022.3 mb]
Winds: from the S (170 degrees) at 13 MPH (11 knots; 5.7 m/s)
gusting to 21 MPH (18 knots; 9.4 m/s)
Visibility: 10 or more miles (16+ km)
Ceiling: 4300 feet AGL
Clouds: few clouds at 2400 feet AGL
scattered clouds at 3400 feet AGL
broken clouds at 4300 feet AGL
Weather: no significant weather observed at this time

METAR text: KSBP 210256Z 16013G19KT 10SM SCT100 16/12 A3016 RMK AO2 SLP214 60000 T01610122 53003
Conditions at: KSBP (SAN LUIS OBISPO , CA, US) observed 0256 UTC 21 February 2017
Temperature: 16.1°C (61°F)
Dewpoint: 12.2°C (54°F) [RH = 78%]
Pressure (altimeter): 30.16 inches Hg (1021.4 mb)
[Sea-level pressure: 1021.4 mb]
Winds: from the SSE (160 degrees) at 15 MPH (13 knots; 6.8 m/s)
gusting to 22 MPH (19 knots; 9.9 m/s)
Visibility: 10 or more miles (16+ km)
Ceiling: at least 12,000 feet AGL
Clouds: scattered clouds at 10000 feet AGL
Weather: no significant weather observed at this time

METAR text: KSBP 210156Z 16012G18KT 10SM BKN020 BKN031 BKN090 17/12 A3016 RMK AO2 SLP213 T01670122
Conditions at: KSBP (SAN LUIS OBISPO , CA, US) observed 0156 UTC 21 February 2017
Temperature: 16.7°C (62°F)
Dewpoint: 12.2°C (54°F) [RH = 75%]
Pressure (altimeter): 30.16 inches Hg (1021.4 mb)
[Sea-level pressure: 1021.3 mb]
Winds: from the SSE (160 degrees) at 14 MPH (12 knots; 6.2 m/s)
gusting to 21 MPH (18 knots; 9.4 m/s)
Visibility: 10 or more miles (16+ km)
Ceiling: 2000 feet AGL
Clouds: broken clouds at 2000 feet AGL
broken clouds at 3100 feet AGL
broken clouds at 9000 feet AGL
Weather: no significant weather observed at this time

METAR text: KSBP 210138Z 15014G19KT 10SM BKN020 BKN031 BKN090 17/12 A3016 RMK AO2 T01670122
Conditions at: KSBP (SAN LUIS OBISPO , CA, US) observed 0138 UTC 21 February 2017
Temperature: 16.7°C (62°F)
Dewpoint: 12.2°C (54°F) [RH = 75%]
Pressure (altimeter): 30.16 inches Hg (1021.4 mb)
Winds: from the SSE (150 degrees) at 16 MPH (14 knots; 7.3 m/s)
gusting to 22 MPH (19 knots; 9.9 m/s)
Visibility: 10 or more miles (16+ km)
Ceiling: 2000 feet AGL
Clouds: broken clouds at 2000 feet AGL
broken clouds at 3100 feet AGL
broken clouds at 9000 feet AGL
Weather: no significant weather observed at this time

METAR text: KSBP 210056Z 15011KT 10SM FEW023 OVC090 17/13 A3014 RMK AO2 RAB02E40 SLP204 P0000 T01720128
Conditions at: KSBP (SAN LUIS OBISPO , CA, US) observed 0056 UTC 21 February 2017
Temperature: 17.2°C (63°F)
Dewpoint: 12.8°C (55°F) [RH = 75%]
Pressure (altimeter): 30.14 inches Hg (1020.7 mb)
[Sea-level pressure: 1020.4 mb]
Winds: from the SSE (150 degrees) at 13 MPH (11 knots; 5.7 m/s)
Visibility: 10 or more miles (16+ km)
Ceiling: 9000 feet AGL
Clouds: few clouds at 2300 feet AGL
overcast cloud deck at 9000 feet AGL
Weather: no significant weather observed at this time

METAR text: KSBP 202356Z 15014G20KT 10SM FEW025 BKN085 OVC110 17/13 A3015 RMK AO2 RAB2258E38 SLP210 P0001 60001 T01720128 10183 20156 50002
Conditions at: KSBP (SAN LUIS OBISPO , CA, US) observed 2356 UTC 20 February 2017
Temperature: 17.2°C (63°F)
Dewpoint: 12.8°C (55°F) [RH = 75%]
Pressure (altimeter): 30.15 inches Hg (1021.1 mb)
[Sea-level pressure: 1021.0 mb]
Winds: from the SSE (150 degrees) at 16 MPH (14 knots; 7.3 m/s)
gusting to 23 MPH (20 knots; 10.4 m/s)
Visibility: 10 or more miles (16+ km)
Ceiling: 8500 feet AGL
Clouds: few clouds at 2500 feet AGL
broken clouds at 8500 feet AGL
overcast cloud deck at 11000 feet AGL
Weather: no significant weather observed at this time